createdAt,value
2018-07-28T00:02:18.552Z,99377.45
2018-07-28T00:04:49.522Z,99376.72
2018-07-28T00:07:20.490Z,99372.66
2018-07-28T00:09:51.485Z,99378.02
2018-07-28T00:12:22.534Z,99381.90
2018-07-28T00:14:53.513Z,99380.92
2018-07-28T00:17:24.534Z,99376.85
2018-07-28T00:19:55.609Z,99378.28
2018-07-28T00:22:26.558Z,99379.33
2018-07-28T00:24:57.743Z,99380.55
2018-07-28T00:27:28.659Z,99386.70
2018-07-28T00:29:59.537Z,99391.89
2018-07-28T00:32:30.537Z,99384.11
2018-07-28T00:35:01.565Z,99384.36
2018-07-28T00:37:32.609Z,99381.81
2018-07-28T00:40:03.641Z,99379.07
2018-07-28T00:42:34.550Z,99376.40
2018-07-28T00:45:06.350Z,99375.30
2018-07-28T00:47:37.382Z,99372.33
2018-07-28T00:50:11.695Z,99365.62
2018-07-28T00:52:42.643Z,99361.28
2018-07-28T00:55:13.595Z,99354.38
2018-07-28T00:57:44.538Z,99346.01
2018-07-28T01:00:15.505Z,99340.52
2018-07-28T01:02:46.473Z,99342.45
2018-07-28T01:05:17.486Z,99351.92
2018-07-28T01:07:48.436Z,99344.85
2018-07-28T01:10:19.449Z,99338.00
2018-07-28T01:12:50.512Z,99334.09
2018-07-28T01:15:21.515Z,99331.95
2018-07-28T01:17:52.553Z,99336.19
2018-07-28T01:20:23.550Z,99327.94
2018-07-28T01:22:54.617Z,99334.18
2018-07-28T01:25:25.499Z,99329.73
2018-07-28T01:27:56.469Z,99330.70
2018-07-28T01:30:32.493Z,99322.55
2018-07-28T01:33:03.456Z,99318.80
2018-07-28T01:35:34.522Z,99318.55
2018-07-28T01:38:05.560Z,99315.97
2018-07-28T01:40:36.614Z,99313.95
2018-07-28T01:43:07.666Z,99307.75
2018-07-28T01:45:38.617Z,99307.41
2018-07-28T01:48:09.544Z,99305.72
2018-07-28T01:50:40.660Z,99298.11
2018-07-28T01:53:11.587Z,99302.16
2018-07-28T01:55:42.509Z,99293.62
2018-07-28T01:58:13.535Z,99291.20
2018-07-28T02:00:44.501Z,99289.84
2018-07-28T02:03:15.541Z,99293.31
2018-07-28T02:05:46.531Z,99292.14
2018-07-28T02:08:17.524Z,99297.64
2018-07-28T02:10:48.508Z,99302.06
2018-07-28T02:13:19.513Z,99302.09
2018-07-28T02:15:50.476Z,99290.66
2018-07-28T02:18:21.485Z,99286.51
2018-07-28T02:20:52.542Z,99280.55
2018-07-28T02:23:23.453Z,99288.80
2018-07-28T02:25:54.478Z,99280.41
2018-07-28T02:28:25.502Z,99280.23
2018-07-28T02:30:56.589Z,99279.43
2018-07-28T02:33:27.620Z,99277.64
2018-07-28T02:35:58.525Z,99268.04
2018-07-28T02:38:29.613Z,99268.28
2018-07-28T02:41:00.547Z,99268.69
2018-07-28T02:43:31.484Z,99264.40
2018-07-28T02:46:02.475Z,99265.41
2018-07-28T02:48:33.485Z,99268.70
2018-07-28T02:51:04.725Z,99263.30
2018-07-28T02:53:35.651Z,99269.19
2018-07-28T02:56:06.618Z,99271.88
2018-07-28T02:58:37.475Z,99269.63
2018-07-28T03:01:09.422Z,99277.73
2018-07-28T03:03:41.021Z,99278.97
2018-07-28T03:06:12.430Z,99274.03
2018-07-28T03:08:44.398Z,99280.08
2018-07-28T03:11:15.497Z,99273.23
2018-07-28T03:13:46.499Z,99272.81
2018-07-28T03:16:17.555Z,99267.58
2018-07-28T03:18:48.526Z,99261.95
2018-07-28T03:21:20.027Z,99260.42
2018-07-28T03:23:51.269Z,99263.05
2018-07-28T03:26:22.467Z,99259.98
2018-07-28T03:28:53.659Z,99253.93
2018-07-28T03:31:24.651Z,99255.59
2018-07-28T03:33:56.023Z,99257.45
2018-07-28T03:36:27.290Z,99246.83
2018-07-28T03:38:59.992Z,99238.19
2018-07-28T03:41:31.350Z,99236.84
2018-07-28T03:44:02.418Z,99234.67
2018-07-28T03:46:33.604Z,99240.45
2018-07-28T03:49:04.851Z,99239.92
2018-07-28T03:51:35.344Z,99245.46
2018-07-28T03:54:06.403Z,99246.52
2018-07-28T03:56:37.649Z,99249.69
2018-07-28T03:59:09.301Z,99241.98
2018-07-28T04:01:40.415Z,99240.20
2018-07-28T04:04:11.523Z,99240.53
2018-07-28T04:06:42.505Z,99246.67
2018-07-28T04:09:13.477Z,99247.19
2018-07-28T04:11:44.529Z,99249.42
2018-07-28T04:14:15.729Z,99241.05
2018-07-28T04:16:46.678Z,99238.20
2018-07-28T04:19:17.623Z,99239.42
2018-07-28T04:21:48.581Z,99253.68
2018-07-28T04:24:19.498Z,99254.80
2018-07-28T04:26:50.498Z,99260.10
2018-07-28T04:29:21.684Z,99263.48
2018-07-28T04:31:52.584Z,99256.77
2018-07-28T04:34:23.570Z,99249.25
2018-07-28T04:36:54.732Z,99251.78
2018-07-28T04:39:25.662Z,99251.94
2018-07-28T04:41:56.727Z,99261.42
2018-07-28T04:44:28.053Z,99266.33
2018-07-28T04:46:59.730Z,99276.56
2018-07-28T04:49:30.751Z,99269.95
2018-07-28T04:52:01.637Z,99248.77
2018-07-28T04:54:32.545Z,99242.87
2018-07-28T04:57:03.563Z,99260.17
2018-07-28T04:59:34.501Z,99264.09
2018-07-28T05:02:05.550Z,99248.45
2018-07-28T05:04:36.518Z,99241.80
2018-07-28T05:07:08.318Z,99231.30
2018-07-28T05:09:39.451Z,99238.55
2018-07-28T05:12:10.528Z,99231.33
2018-07-28T05:14:41.633Z,99227.43
2018-07-28T05:17:12.652Z,99221.52
2018-07-28T05:19:43.565Z,99217.48
2018-07-28T05:22:14.543Z,99222.72
2018-07-28T05:24:45.541Z,99224.37
2018-07-28T05:27:16.500Z,99230.93
2018-07-28T05:29:47.518Z,99220.52
2018-07-28T05:32:18.484Z,99227.09
2018-07-28T05:34:49.488Z,99233.77
2018-07-28T05:37:20.525Z,99239.33
2018-07-28T05:39:51.499Z,99228.08
2018-07-28T05:42:22.452Z,99213.89
2018-07-28T05:44:53.476Z,99216.66
2018-07-28T05:47:24.496Z,99226.97
2018-07-28T05:49:55.489Z,99226.17
2018-07-28T05:52:26.510Z,99235.69
2018-07-28T05:54:57.573Z,99241.57
2018-07-28T05:57:28.540Z,99222.87
2018-07-28T05:59:59.519Z,99224.34
2018-07-28T06:02:30.604Z,99224.98
2018-07-28T06:05:01.470Z,99224.22
2018-07-28T06:07:32.552Z,99232.33
2018-07-28T06:10:04.702Z,99222.11
2018-07-28T06:12:35.751Z,99217.16
2018-07-28T06:15:15.236Z,99212.83
2018-07-28T06:17:56.042Z,99209.95
2018-07-28T06:20:29.501Z,99206.69
2018-07-28T06:23:00.556Z,99199.75
2018-07-28T06:25:31.579Z,99196.58
2018-07-28T06:28:02.534Z,99206.66
2018-07-28T06:30:33.617Z,99204.15
2018-07-28T06:33:04.593Z,99206.85
2018-07-28T06:35:35.553Z,99200.11
2018-07-28T06:38:06.559Z,99213.06
2018-07-28T06:40:37.805Z,99205.89
2018-07-28T06:43:09.253Z,99207.91
2018-07-28T06:45:40.490Z,99203.41
2018-07-28T06:48:11.525Z,99211.41
2018-07-28T06:50:42.536Z,99214.69
2018-07-28T06:53:13.591Z,99232.02
2018-07-28T06:55:44.615Z,99246.56
2018-07-28T06:58:15.821Z,99235.84
2018-07-28T07:00:46.445Z,99227.69
2018-07-28T07:03:17.521Z,99246.07
2018-07-28T07:05:48.622Z,99231.00
2018-07-28T07:08:19.538Z,99236.29
2018-07-28T07:10:50.545Z,99245.59
2018-07-28T07:13:21.505Z,99241.03
2018-07-28T07:15:52.542Z,99269.25
2018-07-28T07:18:23.617Z,99303.11
2018-07-28T07:20:54.579Z,99335.34
2018-07-28T07:23:25.480Z,99330.63
2018-07-28T07:25:56.736Z,99323.25
2018-07-28T07:28:27.584Z,99339.26
2018-07-28T07:30:58.537Z,99313.02
2018-07-28T07:33:29.488Z,99331.70
2018-07-28T07:36:00.425Z,99340.70
2018-07-28T07:38:31.496Z,99320.83
2018-07-28T07:41:02.532Z,99321.67
2018-07-28T07:43:33.477Z,99316.27
2018-07-28T07:46:04.523Z,99318.53
2018-07-28T07:48:37.097Z,99322.74
2018-07-28T07:51:08.418Z,99325.46
2018-07-28T07:53:39.488Z,99323.13
2018-07-28T07:56:10.689Z,99325.63
2018-07-28T07:58:44.510Z,99332.59
2018-07-28T08:01:15.493Z,99317.89
2018-07-28T08:03:46.480Z,99315.78
2018-07-28T08:06:17.526Z,99313.30
2018-07-28T08:08:48.481Z,99321.77
2018-07-28T08:11:19.518Z,99315.52
2018-07-28T08:13:50.620Z,99318.83
2018-07-28T08:16:22.200Z,99324.77
2018-07-28T08:18:53.401Z,99312.71
2018-07-28T08:21:25.021Z,99306.20
2018-07-28T08:23:56.372Z,99304.68
2018-07-28T08:26:27.426Z,99298.52
2018-07-28T08:28:58.804Z,99309.23
2018-07-28T08:31:29.800Z,99303.19
2018-07-28T08:35:10.381Z,99292.64
2018-07-28T08:37:41.777Z,99304.09
2018-07-28T08:40:12.557Z,99298.59
2018-07-28T08:42:43.501Z,99304.36
2018-07-28T08:45:14.529Z,99306.26
2018-07-28T08:47:45.481Z,99296.25
2018-07-28T08:50:16.485Z,99293.84
2018-07-28T08:52:47.545Z,99291.38
2018-07-28T08:55:18.745Z,99300.30
2018-07-28T08:57:49.605Z,99303.83
2018-07-28T09:00:20.638Z,99319.58
2018-07-28T09:02:51.571Z,99319.73
2018-07-28T09:05:22.558Z,99324.74
2018-07-28T09:07:53.472Z,99322.86
2018-07-28T09:10:24.519Z,99332.70
2018-07-28T09:12:55.529Z,99331.26
2018-07-28T09:15:26.569Z,99327.69
2018-07-28T09:17:57.591Z,99329.95
2018-07-28T09:20:28.504Z,99332.33
2018-07-28T09:22:59.534Z,99332.00
2018-07-28T09:25:30.487Z,99333.89
2018-07-28T09:28:01.497Z,99335.45
2018-07-28T09:30:32.502Z,99337.78
2018-07-28T09:33:04.606Z,99353.19
2018-07-28T09:35:35.517Z,99367.63
2018-07-28T09:38:06.662Z,99365.58
2018-07-28T09:40:37.577Z,99362.66
2018-07-28T09:43:08.535Z,99360.01
2018-07-28T09:45:39.447Z,99358.82
2018-07-28T09:48:10.506Z,99348.37
2018-07-28T09:50:43.611Z,99345.86
2018-07-28T09:53:14.493Z,99344.38
2018-07-28T09:55:45.771Z,99350.29
2018-07-28T09:58:17.416Z,99348.88
2018-07-28T10:00:53.396Z,99360.55
2018-07-28T10:03:24.465Z,99353.12
2018-07-28T10:05:55.533Z,99357.42
2018-07-28T10:08:26.476Z,99359.28
2018-07-28T10:10:57.477Z,99366.11
2018-07-28T10:13:29.569Z,99367.30
2018-07-28T10:16:00.510Z,99369.48
2018-07-28T10:18:31.534Z,99367.83
2018-07-28T10:21:02.541Z,99358.86
2018-07-28T10:23:33.501Z,99354.22
2018-07-28T10:26:04.526Z,99359.95
2018-07-28T10:28:35.513Z,99363.47
2018-07-28T10:31:06.541Z,99360.56
2018-07-28T10:33:37.491Z,99354.98
2018-07-28T10:36:09.358Z,99354.69
2018-07-28T10:38:40.383Z,99345.74
2018-07-28T10:41:11.488Z,99348.13
2018-07-28T10:43:49.750Z,99356.06
2018-07-28T10:46:29.883Z,99348.77
2018-07-28T10:49:00.744Z,99342.56
2018-07-28T10:51:31.627Z,99332.59
2018-07-28T10:54:02.496Z,99329.90
2018-07-28T10:56:33.468Z,99336.84
2018-07-28T10:59:04.488Z,99349.77
2018-07-28T11:01:35.489Z,99357.62
2018-07-28T11:04:06.625Z,99354.08
2018-07-28T11:06:37.477Z,99359.04
2018-07-28T11:09:10.778Z,99358.88
2018-07-28T11:11:41.574Z,99351.38
2018-07-28T11:14:12.469Z,99350.69
2018-07-28T11:16:43.489Z,99345.17
2018-07-28T11:19:14.544Z,99346.75
2018-07-28T11:21:45.468Z,99341.03
2018-07-28T11:24:16.492Z,99342.87
2018-07-28T11:26:47.482Z,99335.78
2018-07-28T11:29:19.021Z,99352.19
2018-07-28T11:32:13.390Z,99338.22
2018-07-28T11:35:07.452Z,99347.66
2018-07-28T11:38:37.420Z,99343.91
2018-07-28T11:41:31.385Z,99345.28
2018-07-28T11:45:17.357Z,99338.67
2018-07-28T11:47:49.660Z,99343.37
2018-07-28T11:50:20.556Z,99328.67
2018-07-28T11:52:52.303Z,99330.21
2018-07-28T11:55:23.361Z,99329.34
2018-07-28T11:57:54.918Z,99340.73
2018-07-28T12:00:26.367Z,99334.73
2018-07-28T12:02:57.357Z,99331.84
2018-07-28T12:05:29.383Z,99331.63
2018-07-28T12:08:00.459Z,99328.03
2018-07-28T12:10:31.541Z,99327.52
2018-07-28T12:13:02.482Z,99314.52
2018-07-28T12:15:33.425Z,99326.69
2018-07-28T12:18:04.531Z,99330.37
2018-07-28T12:20:35.605Z,99326.98
2018-07-28T12:23:06.616Z,99334.80
2018-07-28T12:25:37.537Z,99330.67
2018-07-28T12:28:08.543Z,99334.09
2018-07-28T12:30:39.492Z,99334.22
2018-07-28T12:33:10.508Z,99329.91
2018-07-28T12:35:41.445Z,99337.14
2018-07-28T12:38:12.491Z,99326.62
2018-07-28T12:40:43.489Z,99324.25
2018-07-28T12:43:14.477Z,99340.16
2018-07-28T12:45:45.484Z,99322.95
2018-07-28T12:48:16.451Z,99322.33
2018-07-28T12:50:47.538Z,99330.72
2018-07-28T12:53:18.579Z,99317.59
2018-07-28T12:55:49.514Z,99329.84
2018-07-28T12:58:20.519Z,99321.70
2018-07-28T13:00:52.667Z,99330.75
2018-07-28T13:03:23.590Z,99331.20
2018-07-28T13:05:54.506Z,99324.17
2018-07-28T13:08:25.565Z,99321.58
2018-07-28T13:10:56.465Z,99332.80
2018-07-28T13:13:27.761Z,99336.61
2018-07-28T13:15:58.563Z,99332.90
2018-07-28T13:18:29.517Z,99330.01
2018-07-28T13:21:00.484Z,99324.67
2018-07-28T13:23:31.686Z,99317.29
2018-07-28T13:26:02.594Z,99302.68
2018-07-28T13:28:33.479Z,99305.91
2018-07-28T13:31:04.484Z,99298.93
2018-07-28T13:33:35.470Z,99302.11
2018-07-28T13:36:06.513Z,99304.11
2018-07-28T13:38:37.474Z,99298.96
2018-07-28T13:42:15.536Z,99297.61
2018-07-28T13:44:46.486Z,99296.80
2018-07-28T13:47:17.480Z,99304.94
2018-07-28T13:49:48.484Z,99315.37
2018-07-28T13:52:19.434Z,99344.63
2018-07-28T13:54:50.490Z,99342.50
2018-07-28T13:57:21.542Z,99337.05
2018-07-28T13:59:52.542Z,99347.28
2018-07-28T14:02:23.497Z,99368.53
2018-07-28T14:04:54.437Z,99420.03
2018-07-28T14:07:25.464Z,99399.91
2018-07-28T14:09:56.482Z,99385.77
2018-07-28T14:12:27.461Z,99379.59
2018-07-28T14:14:58.454Z,99379.59
2018-07-28T14:17:29.553Z,99383.06
2018-07-28T14:20:00.494Z,99389.61
2018-07-28T14:22:31.477Z,99402.48
2018-07-28T14:25:02.509Z,99411.05
2018-07-28T14:27:33.545Z,99409.13
2018-07-28T14:30:04.503Z,99405.00
2018-07-28T14:32:35.509Z,99401.90
2018-07-28T14:35:07.301Z,99402.17
2018-07-28T14:37:38.394Z,99399.91
2018-07-28T14:40:09.522Z,99394.54
2018-07-28T14:42:40.492Z,99404.00
2018-07-28T14:45:12.507Z,99402.33
2018-07-28T14:47:43.502Z,99410.02
2018-07-28T14:50:14.522Z,99421.19
2018-07-28T14:52:47.495Z,99425.78
2018-07-28T14:55:18.575Z,99430.79
2018-07-28T14:57:49.612Z,99434.55
2018-07-28T15:00:20.504Z,99435.73
2018-07-28T15:02:51.481Z,99435.95
2018-07-28T15:05:22.534Z,99434.89
2018-07-28T15:07:53.502Z,99427.64
2018-07-28T15:10:24.506Z,99425.02
2018-07-28T15:12:55.682Z,99425.06
2018-07-28T15:15:27.285Z,99429.35
2018-07-28T15:17:58.376Z,99442.44
2018-07-28T15:20:29.416Z,99438.02
2018-07-28T15:23:00.544Z,99437.41
2018-07-28T15:25:31.526Z,99436.02
2018-07-28T15:28:02.518Z,99434.85
2018-07-28T15:30:33.530Z,99430.83
2018-07-28T15:33:04.510Z,99428.95
2018-07-28T15:35:35.493Z,99429.91
2018-07-28T15:38:06.550Z,99435.22
2018-07-28T15:40:37.475Z,99432.94
2018-07-28T15:43:08.590Z,99429.45
2018-07-28T15:45:39.505Z,99432.80
2018-07-28T15:48:10.605Z,99424.94
2018-07-28T15:50:41.497Z,99413.98
2018-07-28T15:53:12.533Z,99410.20
2018-07-28T15:55:43.525Z,99396.46
2018-07-28T15:58:14.456Z,99394.83
2018-07-28T16:00:45.489Z,99385.56
2018-07-28T16:03:16.499Z,99385.56
2018-07-28T16:05:48.711Z,99390.19
2018-07-28T16:08:20.229Z,99396.73
2018-07-28T16:10:51.644Z,99401.66
2018-07-28T16:13:23.257Z,99408.19
2018-07-28T16:16:06.759Z,99409.55
2018-07-28T16:18:40.661Z,99412.02
2018-07-28T16:21:13.190Z,99420.17
2018-07-28T16:23:45.315Z,99427.41
2018-07-28T16:26:18.296Z,99429.55
2018-07-28T16:28:49.989Z,99422.33
2018-07-28T16:31:21.482Z,99427.77
2018-07-28T16:33:52.515Z,99430.68
2018-07-28T16:36:23.628Z,99439.69
2018-07-28T16:38:54.703Z,99439.11
2018-07-28T16:41:26.676Z,99440.23
2018-07-28T16:44:04.373Z,99436.69
2018-07-28T16:46:35.514Z,99441.61
2018-07-28T16:49:07.373Z,99442.38
2018-07-28T16:51:38.405Z,99450.41
2018-07-28T16:54:09.621Z,99444.70
2018-07-28T16:56:40.522Z,99449.83
2018-07-28T16:59:11.497Z,99457.95
2018-07-28T17:01:42.590Z,99448.75
2018-07-28T17:04:15.245Z,99453.61
2018-07-28T17:06:46.635Z,99453.61
2018-07-28T17:09:17.723Z,99454.70
2018-07-28T17:11:48.669Z,99453.68
2018-07-28T17:14:19.485Z,99457.75
2018-07-28T17:16:50.485Z,99459.37
2018-07-28T17:19:21.506Z,99470.80
2018-07-28T17:21:52.577Z,99473.75
2018-07-28T17:24:23.634Z,99475.19
2018-07-28T17:26:54.649Z,99482.83
2018-07-28T17:29:25.532Z,99490.87
2018-07-28T17:31:56.626Z,99496.57
2018-07-28T17:34:27.631Z,99495.73
2018-07-28T17:36:58.646Z,99499.80
2018-07-28T17:39:29.610Z,99503.34
2018-07-28T17:42:00.574Z,99509.84
2018-07-28T17:44:31.518Z,99517.45
2018-07-28T17:47:03.747Z,99526.14
2018-07-28T17:49:34.710Z,99535.08
2018-07-28T17:52:06.669Z,99533.85
2018-07-28T17:54:38.293Z,99543.84
2018-07-28T17:57:15.110Z,99538.44
2018-07-28T17:59:46.440Z,99547.96
2018-07-28T18:02:17.506Z,99546.67
2018-07-28T18:04:48.609Z,99550.36
2018-07-28T18:07:19.533Z,99559.55
2018-07-28T18:09:50.600Z,99555.97
2018-07-28T18:12:21.579Z,99563.13
2018-07-28T18:14:52.633Z,99560.64
2018-07-28T18:17:23.593Z,99572.22
2018-07-28T18:19:54.681Z,99570.17
2018-07-28T18:22:25.646Z,99578.86
2018-07-28T18:24:56.557Z,99576.00
2018-07-28T18:27:27.569Z,99588.34
2018-07-28T18:29:58.484Z,99591.87
2018-07-28T18:32:29.492Z,99602.17
2018-07-28T18:35:00.496Z,99599.63
2018-07-28T18:37:31.464Z,99599.86
2018-07-28T18:40:02.535Z,99601.47
2018-07-28T18:42:33.505Z,99604.94
2018-07-28T18:45:04.445Z,99602.09
2018-07-28T18:47:35.473Z,99606.86
2018-07-28T18:50:07.472Z,99605.28
2018-07-28T18:52:38.421Z,99610.09
2018-07-28T18:55:09.479Z,99614.72
2018-07-28T18:57:40.444Z,99615.30
2018-07-28T19:00:11.469Z,99613.94
2018-07-28T19:02:42.458Z,99615.96
2018-07-28T19:05:13.418Z,99615.91
2018-07-28T19:07:44.491Z,99619.16
2018-07-28T19:10:15.481Z,99623.53
2018-07-28T19:12:51.639Z,99632.47
2018-07-28T19:15:22.472Z,99635.41
2018-07-28T19:17:58.486Z,99634.00
2018-07-28T19:20:29.468Z,99638.34
2018-07-28T19:23:05.689Z,99640.14
2018-07-28T19:25:36.616Z,99647.45
2018-07-28T19:28:12.611Z,99655.58
2018-07-28T19:30:43.534Z,99665.19
2018-07-28T19:33:14.476Z,99669.47
2018-07-28T19:35:50.511Z,99674.03
2018-07-28T19:38:21.514Z,99673.13
2018-07-28T19:40:52.484Z,99676.34
2018-07-28T19:43:23.444Z,99685.39
2018-07-28T19:45:54.495Z,99675.05
2018-07-28T19:48:25.501Z,99687.67
2018-07-28T19:50:56.502Z,99690.16
2018-07-28T19:54:55.439Z,99690.80
2018-07-28T19:57:26.449Z,99700.69
2018-07-28T19:59:57.442Z,99708.09
2018-07-28T20:02:28.464Z,99706.50
2018-07-28T20:04:59.557Z,99709.80
2018-07-28T20:07:30.472Z,99714.89
2018-07-28T20:10:01.510Z,99721.23
2018-07-28T20:12:32.525Z,99722.81
2018-07-28T20:15:03.471Z,99729.86
2018-07-28T20:17:34.439Z,99732.95
2018-07-28T20:20:05.505Z,99732.39
2018-07-28T20:22:36.415Z,99738.94
2018-07-28T20:25:07.484Z,99738.53
2018-07-28T20:27:38.430Z,99742.84
2018-07-28T20:30:09.396Z,99742.44
2018-07-28T20:32:41.377Z,99741.33
2018-07-28T20:35:12.393Z,99750.60
2018-07-28T20:37:43.510Z,99748.83
2018-07-28T20:40:14.508Z,99746.02
2018-07-28T20:42:45.485Z,99753.07
2018-07-28T20:45:16.669Z,99750.36
2018-07-28T20:47:47.580Z,99759.77
2018-07-28T20:50:18.626Z,99755.59
2018-07-28T20:52:49.501Z,99765.13
2018-07-28T20:55:20.521Z,99771.02
2018-07-28T20:57:51.525Z,99773.02
2018-07-28T21:00:22.530Z,99770.19
2018-07-28T21:02:53.492Z,99778.08
2018-07-28T21:05:24.497Z,99776.72
2018-07-28T21:07:55.498Z,99785.66
2018-07-28T21:10:26.497Z,99785.82
2018-07-28T21:12:57.507Z,99796.41
2018-07-28T21:15:28.477Z,99789.45
2018-07-28T21:17:59.486Z,99794.30
2018-07-28T21:20:30.502Z,99791.52
2018-07-28T21:23:01.481Z,99792.55
2018-07-28T21:25:32.537Z,99799.80
2018-07-28T21:28:03.544Z,99794.45
2018-07-28T21:30:34.495Z,99802.89
2018-07-28T21:33:05.517Z,99807.08
2018-07-28T21:35:36.493Z,99811.14
2018-07-28T21:38:08.287Z,99809.19
2018-07-28T21:40:39.389Z,99809.66
2018-07-28T21:43:10.468Z,99808.94
2018-07-28T21:45:41.456Z,99806.91
2018-07-28T21:48:12.478Z,99811.41
2018-07-28T21:50:43.506Z,99810.16
2018-07-28T21:53:14.464Z,99799.73
2018-07-28T21:55:45.482Z,99806.13
2018-07-28T21:58:16.521Z,99812.34
2018-07-28T22:01:07.008Z,99822.56
2018-07-28T22:03:38.429Z,99812.84
2018-07-28T22:06:09.497Z,99816.61
2018-07-28T22:08:40.509Z,99814.19
2018-07-28T22:11:11.510Z,99816.67
2018-07-28T22:13:42.505Z,99819.23
2018-07-28T22:16:13.485Z,99817.52
2018-07-28T22:18:44.510Z,99820.88
2018-07-28T22:21:15.495Z,99822.18
2018-07-28T22:23:46.525Z,99825.50
2018-07-28T22:26:17.497Z,99830.50
2018-07-28T22:28:48.477Z,99823.30
2018-07-28T22:31:19.493Z,99837.23
2018-07-28T22:33:50.474Z,99838.79
2018-07-28T22:36:21.510Z,99841.45
2018-07-28T22:38:52.457Z,99836.34
2018-07-28T22:41:23.496Z,99842.49
2018-07-28T22:43:54.437Z,99842.12
2018-07-28T22:46:25.447Z,99844.73
2018-07-28T22:48:56.469Z,99847.29
2018-07-28T22:51:27.454Z,99846.08
2018-07-28T22:53:58.498Z,99845.57
2018-07-28T22:56:29.453Z,99845.50
2018-07-28T22:59:00.444Z,99848.27
2018-07-28T23:01:31.457Z,99850.31
2018-07-28T23:04:02.423Z,99849.23
2018-07-28T23:06:33.451Z,99852.55
2018-07-28T23:09:05.396Z,99851.95
2018-07-28T23:11:37.274Z,99860.50
2018-07-28T23:14:08.412Z,99863.06
2018-07-28T23:16:39.487Z,99862.64
2018-07-28T23:20:38.458Z,99872.92
2018-07-28T23:23:09.408Z,99874.50
2018-07-28T23:25:40.469Z,99875.68
2018-07-28T23:28:11.423Z,99874.03
2018-07-28T23:30:42.428Z,99874.41
2018-07-28T23:33:13.436Z,99875.97
2018-07-28T23:35:44.440Z,99879.02
2018-07-28T23:38:15.456Z,99888.25
2018-07-28T23:40:47.288Z,99885.06
2018-07-28T23:43:18.510Z,99882.78
2018-07-28T23:45:49.480Z,99893.23
2018-07-28T23:48:20.461Z,99889.23
2018-07-28T23:50:51.470Z,99885.42
2018-07-28T23:53:22.432Z,99885.95
2018-07-28T23:55:53.474Z,99888.48
2018-07-28T23:58:24.441Z,99890.62
